createdAt,value
2022-10-18T00:02:01.395Z,99423.88
2022-10-18T00:04:29.656Z,99417.47
2022-10-18T00:06:58.052Z,99423.91
2022-10-18T00:09:27.457Z,99430.81
2022-10-18T00:11:56.099Z,99437.31
2022-10-18T00:14:25.723Z,99432.03
2022-10-18T00:16:54.035Z,99434.56
2022-10-18T00:19:25.882Z,99434.09
2022-10-18T00:21:56.762Z,99436.63
2022-10-18T00:24:25.048Z,99438.38
2022-10-18T00:26:53.669Z,99448.38
2022-10-18T00:29:25.619Z,99441.94
2022-10-18T00:31:53.876Z,99439.63
2022-10-18T00:34:22.084Z,99436.84
2022-10-18T00:36:50.408Z,99442.59
2022-10-18T00:39:20.159Z,99441.28
2022-10-18T00:41:51.183Z,99449.81
2022-10-18T00:45:13.501Z,99448.41
2022-10-18T00:47:42.485Z,99446.34
2022-10-18T00:50:14.223Z,99445.09
2022-10-18T00:52:46.678Z,99443.88
2022-10-18T00:55:15.146Z,99442.25
2022-10-18T00:57:46.462Z,99444.25
2022-10-18T01:00:16.816Z,99442.97
2022-10-18T01:02:46.617Z,99438.81
2022-10-18T01:05:16.573Z,99443.56
2022-10-18T01:07:59.871Z,99444.91
2022-10-18T01:10:35.997Z,99429.75
2022-10-18T01:13:23.389Z,99426.09
2022-10-18T01:16:01.288Z,99439.69
2022-10-18T01:18:38.561Z,99440.53
2022-10-18T01:21:17.418Z,99433.06
2022-10-18T01:24:30.356Z,99437.91
2022-10-18T01:27:29.877Z,99438.34
2022-10-18T01:30:36.318Z,99438.81
2022-10-18T01:33:13.166Z,99426.81
2022-10-18T01:35:46.199Z,99436.97
2022-10-18T01:38:18.143Z,99434.75
2022-10-18T01:40:50.490Z,99430.38
2022-10-18T01:43:20.876Z,99434.22
2022-10-18T01:45:52.949Z,99430.28
2022-10-18T01:48:23.423Z,99437.31
2022-10-18T01:50:53.627Z,99430.88
2022-10-18T01:53:28.056Z,99429.56
2022-10-18T01:56:08.536Z,99413.38
2022-10-18T01:58:43.007Z,99410.72
2022-10-18T02:01:19.320Z,99409.53
2022-10-18T02:03:53.485Z,99408.19
2022-10-18T02:06:29.121Z,99417.41
2022-10-18T02:09:04.761Z,99411.28
2022-10-18T02:11:34.857Z,99415.97
2022-10-18T02:14:09.425Z,99413.28
2022-10-18T02:16:42.353Z,99412.91
2022-10-18T02:19:16.755Z,99410.19
2022-10-18T02:21:46.618Z,99418.44
2022-10-18T02:24:16.215Z,99404.09
2022-10-18T02:26:44.739Z,99396.91
2022-10-18T02:29:13.451Z,99404.19
2022-10-18T02:31:45.134Z,99398.66
2022-10-18T02:34:21.309Z,99388.00
2022-10-18T02:36:53.478Z,99393.97
2022-10-18T02:39:26.013Z,99384.69
2022-10-18T02:41:55.420Z,99381.66
2022-10-18T02:44:24.154Z,99367.91
2022-10-18T02:46:52.437Z,99379.59
2022-10-18T02:49:22.199Z,99369.53
2022-10-18T02:51:50.772Z,99377.88
2022-10-18T02:54:19.011Z,99374.75
2022-10-18T02:56:47.253Z,99371.84
2022-10-18T02:59:15.567Z,99384.09
2022-10-18T03:01:43.953Z,99380.16
2022-10-18T03:04:12.248Z,99372.38
2022-10-18T03:06:41.801Z,99371.53
2022-10-18T03:09:10.758Z,99376.75
2022-10-18T03:11:38.971Z,99370.78
2022-10-18T03:14:07.226Z,99374.78
2022-10-18T03:16:35.466Z,99368.16
2022-10-18T03:19:04.290Z,99377.47
2022-10-18T03:21:32.583Z,99370.81
2022-10-18T03:24:03.096Z,99377.00
2022-10-18T03:26:31.674Z,99365.97
2022-10-18T03:29:00.077Z,99361.94
2022-10-18T03:31:28.396Z,99348.16
2022-10-18T03:33:56.756Z,99353.81
2022-10-18T03:36:25.087Z,99342.28
2022-10-18T03:38:53.327Z,99344.03
2022-10-18T03:41:23.174Z,99346.28
2022-10-18T03:43:51.411Z,99342.31
2022-10-18T03:46:19.651Z,99347.06
2022-10-18T03:48:50.025Z,99357.38
2022-10-18T03:51:18.351Z,99374.44
2022-10-18T03:53:46.703Z,99378.00
2022-10-18T03:56:14.967Z,99383.78
2022-10-18T03:58:44.563Z,99388.56
2022-10-18T04:01:13.175Z,99403.78
2022-10-18T04:03:41.455Z,99400.78
2022-10-18T04:06:09.992Z,99406.00
2022-10-18T04:08:38.243Z,99403.88
2022-10-18T04:11:08.572Z,99416.38
2022-10-18T04:13:36.974Z,99412.47
2022-10-18T04:16:06.827Z,99419.63
2022-10-18T04:18:37.462Z,99409.03
2022-10-18T04:21:08.269Z,99423.50
2022-10-18T04:23:38.787Z,99423.06
2022-10-18T04:26:09.893Z,99422.41
2022-10-18T04:28:40.113Z,99425.69
2022-10-18T04:31:13.080Z,99428.91
2022-10-18T04:33:43.682Z,99427.66
2022-10-18T04:36:11.912Z,99426.06
2022-10-18T04:38:40.168Z,99422.50
2022-10-18T04:41:08.399Z,99415.41
2022-10-18T04:43:36.889Z,99412.69
2022-10-18T04:46:07.667Z,99413.06
2022-10-18T04:48:37.305Z,99409.59
2022-10-18T04:51:07.692Z,99408.56
2022-10-18T04:53:35.955Z,99407.13
2022-10-18T04:56:04.264Z,99402.97
2022-10-18T04:58:32.490Z,99395.88
2022-10-18T05:01:00.713Z,99404.84
2022-10-18T05:03:28.924Z,99405.84
2022-10-18T05:06:03.163Z,99395.09
2022-10-18T05:08:33.765Z,99387.09
2022-10-18T05:11:02.806Z,99400.88
2022-10-18T05:13:31.441Z,99401.38
2022-10-18T05:16:00.681Z,99402.06
2022-10-18T05:18:29.159Z,99393.53
2022-10-18T05:20:58.763Z,99407.34
2022-10-18T05:23:27.016Z,99404.69
2022-10-18T05:25:55.619Z,99395.06
2022-10-18T05:28:42.151Z,99399.41
2022-10-18T05:31:12.305Z,99386.56
2022-10-18T05:33:40.820Z,99381.97
2022-10-18T05:36:11.693Z,99379.56
2022-10-18T05:38:42.623Z,99387.94
2022-10-18T05:41:11.364Z,99372.41
2022-10-18T05:43:40.071Z,99383.13
2022-10-18T05:46:13.530Z,99380.03
2022-10-18T05:48:43.865Z,99393.06
2022-10-18T05:51:13.539Z,99387.72
2022-10-18T05:53:41.824Z,99389.91
2022-10-18T05:56:11.725Z,99385.50
2022-10-18T05:58:41.049Z,99373.22
2022-10-18T06:01:10.198Z,99399.25
2022-10-18T06:03:38.563Z,99410.84
2022-10-18T06:06:08.695Z,99418.63
2022-10-18T06:08:39.507Z,99415.16
2022-10-18T06:11:08.812Z,99408.78
2022-10-18T06:13:41.561Z,99411.50
2022-10-18T06:16:10.922Z,99398.50
2022-10-18T06:18:39.515Z,99403.22
2022-10-18T06:21:10.603Z,99405.94
2022-10-18T06:23:40.344Z,99399.34
2022-10-18T06:26:11.199Z,99395.66
2022-10-18T06:28:39.808Z,99402.16
2022-10-18T06:31:08.589Z,99390.44
2022-10-18T06:33:37.044Z,99399.03
2022-10-18T06:36:07.859Z,99407.59
2022-10-18T06:38:36.341Z,99409.16
2022-10-18T06:41:07.052Z,99396.75
2022-10-18T06:43:35.668Z,99396.69
2022-10-18T06:46:07.548Z,99403.28
2022-10-18T06:48:36.693Z,99388.72
2022-10-18T06:51:07.510Z,99407.25
2022-10-18T06:53:44.051Z,99411.38
2022-10-18T06:56:18.289Z,99405.25
2022-10-18T06:58:46.556Z,99409.03
2022-10-18T07:01:16.945Z,99408.59
2022-10-18T07:03:45.809Z,99404.63
2022-10-18T07:06:19.179Z,99417.63
2022-10-18T07:08:48.200Z,99424.25
2022-10-18T07:11:21.082Z,99428.41
2022-10-18T07:13:49.376Z,99429.91
2022-10-18T07:16:19.538Z,99430.41
2022-10-18T07:18:50.248Z,99439.47
2022-10-18T07:21:20.550Z,99434.66
2022-10-18T07:23:49.514Z,99428.22
2022-10-18T07:26:21.700Z,99428.28
2022-10-18T07:28:54.025Z,99418.19
2022-10-18T07:31:23.607Z,99408.00
2022-10-18T07:33:54.346Z,99415.56
2022-10-18T07:36:22.757Z,99424.28
2022-10-18T07:38:53.738Z,99426.94
2022-10-18T07:41:23.441Z,99429.69
2022-10-18T07:43:53.028Z,99425.06
2022-10-18T07:46:22.861Z,99427.19
2022-10-18T07:48:52.137Z,99412.78
2022-10-18T07:51:21.419Z,99413.41
2022-10-18T07:53:49.701Z,99408.19
2022-10-18T07:56:21.073Z,99419.31
2022-10-18T07:58:53.379Z,99422.06
2022-10-18T08:01:22.706Z,99434.13
2022-10-18T08:03:54.070Z,99443.63
2022-10-18T08:06:24.738Z,99439.88
2022-10-18T08:08:53.321Z,99438.81
2022-10-18T08:11:24.085Z,99446.00
2022-10-18T08:13:56.213Z,99443.06
2022-10-18T08:16:26.805Z,99445.88
2022-10-18T08:18:56.037Z,99451.56
2022-10-18T08:21:24.966Z,99447.69
2022-10-18T08:23:55.136Z,99448.84
2022-10-18T08:26:24.594Z,99460.66
2022-10-18T08:29:17.739Z,99459.13
2022-10-18T08:31:44.710Z,99461.63
2022-10-18T08:34:17.289Z,99461.41
2022-10-18T08:36:49.546Z,99466.63
2022-10-18T08:39:17.884Z,99472.09
2022-10-18T08:42:10.598Z,99468.75
2022-10-18T08:44:46.047Z,99470.78
2022-10-18T08:47:19.696Z,99478.59
2022-10-18T08:49:51.482Z,99471.22
2022-10-18T08:52:29.339Z,99469.56
2022-10-18T08:55:12.797Z,99485.59
2022-10-18T08:57:49.344Z,99478.81
2022-10-18T09:00:21.541Z,99462.75
2022-10-18T09:03:12.343Z,99460.41
2022-10-18T09:05:50.063Z,99446.00
2022-10-18T09:08:36.518Z,99437.00
2022-10-18T09:11:19.396Z,99440.31
2022-10-18T09:14:25.985Z,99425.22
2022-10-18T09:17:07.459Z,99431.97
2022-10-18T09:19:55.000Z,99436.53
2022-10-18T09:22:34.021Z,99432.31
2022-10-18T09:25:09.319Z,99424.56
2022-10-18T09:27:49.596Z,99417.47
2022-10-18T09:30:26.518Z,99401.84
2022-10-18T09:33:05.989Z,99419.88
2022-10-18T09:35:43.280Z,99419.13
2022-10-18T09:38:17.061Z,99405.88
2022-10-18T09:40:53.527Z,99409.47
2022-10-18T09:43:25.758Z,99396.91
2022-10-18T09:45:56.409Z,99402.94
2022-10-18T09:48:30.109Z,99390.31
2022-10-18T09:51:02.037Z,99401.31
2022-10-18T09:53:41.538Z,99401.47
2022-10-18T09:56:13.571Z,99396.91
2022-10-18T09:58:44.486Z,99397.59
2022-10-18T10:01:15.361Z,99396.63
2022-10-18T10:03:45.222Z,99398.22
2022-10-18T10:06:23.573Z,99393.63
2022-10-18T10:08:58.561Z,99390.97
2022-10-18T10:11:32.599Z,99398.28
2022-10-18T10:14:09.831Z,99395.75
2022-10-18T10:16:52.278Z,99393.28
2022-10-18T10:19:25.436Z,99392.22
2022-10-18T10:21:58.073Z,99392.03
2022-10-18T10:24:34.135Z,99388.47
2022-10-18T10:27:06.078Z,99389.22
2022-10-18T10:29:56.514Z,99376.56
2022-10-18T10:35:02.963Z,99381.00
2022-10-18T10:37:35.487Z,99359.75
2022-10-18T10:40:20.458Z,99379.34
2022-10-18T10:43:36.564Z,99382.66
2022-10-18T10:46:09.812Z,99379.91
2022-10-18T10:48:49.478Z,99380.41
2022-10-18T10:51:29.348Z,99386.00
2022-10-18T10:54:03.792Z,99393.34
2022-10-18T10:56:34.440Z,99393.88
2022-10-18T10:59:11.123Z,99388.16
2022-10-18T11:01:43.587Z,99393.09
2022-10-18T11:04:27.509Z,99386.50
2022-10-18T11:07:05.955Z,99389.03
2022-10-18T11:09:51.096Z,99393.38
2022-10-18T11:12:24.881Z,99393.09
2022-10-18T11:15:00.576Z,99400.53
2022-10-18T11:17:41.643Z,99394.19
2022-10-18T11:20:13.274Z,99394.47
2022-10-18T11:22:46.289Z,99398.00
2022-10-18T11:25:17.922Z,99396.34
2022-10-18T11:27:51.076Z,99393.41
2022-10-18T11:30:37.087Z,99395.28
2022-10-18T11:33:10.349Z,99388.19
2022-10-18T11:35:43.195Z,99401.94
2022-10-18T11:38:19.356Z,99396.16
2022-10-18T11:40:55.806Z,99386.75
2022-10-18T11:43:57.241Z,99396.94
2022-10-18T11:46:29.646Z,99398.56
2022-10-18T11:49:12.545Z,99396.63
2022-10-18T11:52:09.272Z,99390.88
2022-10-18T11:54:53.108Z,99394.22
2022-10-18T11:57:41.158Z,99390.22
2022-10-18T12:00:23.626Z,99388.91
2022-10-18T12:03:13.152Z,99388.38
2022-10-18T12:05:43.006Z,99384.97
2022-10-18T12:08:14.484Z,99373.13
2022-10-18T12:11:03.927Z,99372.19
2022-10-18T12:13:35.976Z,99375.81
2022-10-18T12:16:05.002Z,99374.97
2022-10-18T12:18:33.377Z,99378.75
2022-10-18T12:21:01.879Z,99383.72
2022-10-18T12:23:38.999Z,99370.53
2022-10-18T12:26:09.049Z,99366.66
2022-10-18T12:28:45.967Z,99372.69
2022-10-18T12:31:19.526Z,99372.41
2022-10-18T12:33:49.232Z,99367.22
2022-10-18T12:36:27.040Z,99369.44
2022-10-18T12:38:58.336Z,99369.84
2022-10-18T12:41:29.288Z,99368.13
2022-10-18T12:44:01.924Z,99361.53
2022-10-18T12:46:44.619Z,99359.00
2022-10-18T12:49:13.876Z,99363.97
2022-10-18T12:51:50.918Z,99372.47
2022-10-18T12:54:21.273Z,99373.31
2022-10-18T12:56:50.851Z,99371.72
2022-10-18T12:59:52.288Z,99371.13
2022-10-18T13:02:22.042Z,99363.41
2022-10-18T13:04:50.150Z,99363.41
2022-10-18T13:07:22.546Z,99359.84
2022-10-18T13:10:09.361Z,99355.75
2022-10-18T13:12:51.241Z,99352.16
2022-10-18T13:15:34.349Z,99348.63
2022-10-18T13:18:07.842Z,99356.19
2022-10-18T13:20:39.481Z,99354.03
2022-10-18T13:23:13.554Z,99357.41
2022-10-18T13:25:50.590Z,99347.16
2022-10-18T13:28:28.298Z,99352.59
2022-10-18T13:30:58.670Z,99357.34
2022-10-18T13:33:31.687Z,99356.53
2022-10-18T13:36:02.826Z,99356.28
2022-10-18T13:38:39.775Z,99347.22
2022-10-18T13:41:10.772Z,99349.13
2022-10-18T13:43:59.697Z,99347.47
2022-10-18T13:46:42.624Z,99352.19
2022-10-18T13:49:20.042Z,99349.66
2022-10-18T13:51:53.930Z,99355.16
2022-10-18T13:54:33.282Z,99351.03
2022-10-18T13:57:14.674Z,99358.09
2022-10-18T14:00:00.630Z,99361.97
2022-10-18T14:02:59.611Z,99368.25
2022-10-18T14:05:52.016Z,99364.91
2022-10-18T14:08:21.668Z,99365.69
2022-10-18T14:11:02.381Z,99371.69
2022-10-18T14:13:35.305Z,99381.75
2022-10-18T14:16:07.610Z,99379.94
2022-10-18T14:18:38.888Z,99387.44
2022-10-18T14:21:15.388Z,99384.09
2022-10-18T14:23:46.053Z,99379.03
2022-10-18T14:26:14.991Z,99376.97
2022-10-18T14:29:00.270Z,99377.34
2022-10-18T14:31:30.978Z,99380.19
2022-10-18T14:34:03.672Z,99376.16
2022-10-18T14:36:36.877Z,99375.41
2022-10-18T14:39:06.030Z,99367.72
2022-10-18T14:41:35.049Z,99366.41
2022-10-18T14:44:18.461Z,99375.25
2022-10-18T14:46:47.633Z,99367.44
2022-10-18T14:49:20.104Z,99373.22
2022-10-18T14:51:50.433Z,99376.91
2022-10-18T14:54:19.586Z,99380.59
2022-10-18T14:56:47.899Z,99382.38
2022-10-18T14:59:18.834Z,99380.47
2022-10-18T15:01:54.932Z,99381.28
2022-10-18T15:04:27.835Z,99383.47
2022-10-18T15:06:56.913Z,99380.91
2022-10-18T15:09:25.234Z,99385.22
2022-10-18T15:11:54.758Z,99382.41
2022-10-18T15:14:22.905Z,99388.44
2022-10-18T15:16:51.627Z,99379.34
2022-10-18T15:19:29.899Z,99379.34
2022-10-18T15:25:04.052Z,99375.31
2022-10-18T15:27:33.215Z,99372.09
2022-10-18T15:30:08.372Z,99377.28
2022-10-18T15:32:37.747Z,99366.28
2022-10-18T15:35:15.688Z,99366.78
2022-10-18T15:37:44.983Z,99363.38
2022-10-18T15:40:33.182Z,99368.31
2022-10-18T15:43:02.264Z,99368.13
2022-10-18T15:45:32.427Z,99369.41
2022-10-18T15:48:01.676Z,99369.84
2022-10-18T15:50:41.414Z,99372.16
2022-10-18T15:53:26.459Z,99369.97
2022-10-18T15:55:56.855Z,99372.19
2022-10-18T15:58:25.894Z,99367.09
2022-10-18T16:00:55.097Z,99368.19
2022-10-18T16:03:24.018Z,99368.81
2022-10-18T16:05:55.300Z,99373.16
2022-10-18T16:08:24.214Z,99368.50
2022-10-18T16:10:54.376Z,99369.84
2022-10-18T16:13:22.451Z,99375.81
2022-10-18T16:15:50.507Z,99368.97
2022-10-18T16:18:20.268Z,99375.25
2022-10-18T16:20:48.820Z,99377.13
2022-10-18T16:23:19.876Z,99381.16
2022-10-18T16:25:48.011Z,99376.97
2022-10-18T16:28:16.697Z,99383.91
2022-10-18T16:30:46.006Z,99386.31
2022-10-18T16:33:17.838Z,99385.84
2022-10-18T16:35:48.698Z,99390.41
2022-10-18T16:38:22.950Z,99389.81
2022-10-18T16:40:53.147Z,99385.69
2022-10-18T16:43:21.339Z,99390.53
2022-10-18T16:45:50.007Z,99393.91
2022-10-18T16:48:18.806Z,99405.63
2022-10-18T16:50:47.015Z,99407.72
2022-10-18T16:53:15.190Z,99406.16
2022-10-18T16:55:44.674Z,99414.88
2022-10-18T16:58:16.709Z,99415.50
2022-10-18T17:00:46.136Z,99425.69
2022-10-18T17:03:14.583Z,99418.97
2022-10-18T17:05:45.062Z,99419.03
2022-10-18T17:08:18.912Z,99427.09
2022-10-18T17:10:49.644Z,99433.88
2022-10-18T17:13:18.051Z,99436.38
2022-10-18T17:15:46.627Z,99435.53
2022-10-18T17:18:16.242Z,99436.50
2022-10-18T17:20:45.033Z,99445.22
2022-10-18T17:23:13.123Z,99436.44
2022-10-18T17:25:52.693Z,99443.81
2022-10-18T17:28:33.086Z,99451.81
2022-10-18T17:31:01.105Z,99455.72
2022-10-18T17:33:29.130Z,99457.47
2022-10-18T17:35:59.706Z,99448.44
2022-10-18T17:38:27.699Z,99459.22
2022-10-18T17:40:56.782Z,99462.34
2022-10-18T17:43:25.044Z,99468.91
2022-10-18T17:45:56.932Z,99467.66
2022-10-18T17:48:25.534Z,99473.28
2022-10-18T17:50:55.989Z,99478.41
2022-10-18T17:53:28.402Z,99478.81
2022-10-18T17:56:02.457Z,99482.03
2022-10-18T17:58:31.484Z,99490.44
2022-10-18T18:01:08.519Z,99491.91
2022-10-18T18:03:36.572Z,99491.38
2022-10-18T18:06:12.449Z,99502.22
2022-10-18T18:08:40.411Z,99505.81
2022-10-18T18:11:08.492Z,99520.50
2022-10-18T18:13:36.557Z,99521.09
2022-10-18T18:16:13.049Z,99513.31
2022-10-18T18:18:41.553Z,99523.88
2022-10-18T18:21:09.630Z,99528.38
2022-10-18T18:23:37.642Z,99525.53
2022-10-18T18:26:05.755Z,99520.78
2022-10-18T18:28:34.465Z,99523.41
2022-10-18T18:31:06.069Z,99530.63
2022-10-18T18:33:35.472Z,99537.88
2022-10-18T18:36:04.831Z,99534.53
2022-10-18T18:38:33.381Z,99537.16
2022-10-18T18:41:05.703Z,99538.81
2022-10-18T18:43:33.757Z,99539.03
2022-10-18T18:46:01.830Z,99542.63
2022-10-18T18:48:30.145Z,99540.47
2022-10-18T18:50:59.544Z,99548.66
2022-10-18T18:53:29.395Z,99549.03
2022-10-18T18:56:02.491Z,99546.50
2022-10-18T18:58:30.483Z,99545.44
2022-10-18T19:00:58.783Z,99548.88
2022-10-18T19:03:26.818Z,99547.59
2022-10-18T19:06:04.481Z,99552.81
2022-10-18T19:08:32.561Z,99544.38
2022-10-18T19:11:00.567Z,99546.41
2022-10-18T19:13:30.911Z,99538.69
2022-10-18T19:16:26.067Z,99537.84
2022-10-18T19:18:55.459Z,99543.31
2022-10-18T19:21:25.723Z,99543.44
2022-10-18T19:23:56.855Z,99550.34
2022-10-18T19:26:26.853Z,99554.94
2022-10-18T19:28:55.325Z,99563.41
2022-10-18T19:31:23.817Z,99557.50
2022-10-18T19:33:59.219Z,99571.13
2022-10-18T19:36:30.009Z,99568.38
2022-10-18T19:38:58.187Z,99566.88
2022-10-18T19:44:01.634Z,99564.91
2022-10-18T19:46:29.854Z,99570.69
2022-10-18T19:48:58.577Z,99584.44
2022-10-18T19:51:28.306Z,99585.72
2022-10-18T19:53:58.222Z,99595.44
2022-10-18T19:56:27.099Z,99586.66
2022-10-18T19:58:55.810Z,99587.19
2022-10-18T20:01:24.449Z,99580.72
2022-10-18T20:03:52.920Z,99580.63
2022-10-18T20:06:21.677Z,99585.63
2022-10-18T20:08:50.163Z,99589.94
2022-10-18T20:11:20.522Z,99588.47
2022-10-18T20:13:49.009Z,99598.53
2022-10-18T20:16:26.917Z,99597.47
2022-10-18T20:18:57.007Z,99594.88
2022-10-18T20:21:25.400Z,99606.09
2022-10-18T20:23:53.690Z,99605.28
2022-10-18T20:26:25.255Z,99608.59
2022-10-18T20:28:56.785Z,99618.25
2022-10-18T20:31:26.101Z,99619.25
2022-10-18T20:33:55.516Z,99615.69
2022-10-18T20:36:23.550Z,99620.97
2022-10-18T20:38:51.716Z,99620.72
2022-10-18T20:41:21.372Z,99620.28
2022-10-18T20:43:52.995Z,99621.94
2022-10-18T20:46:23.531Z,99628.53
2022-10-18T20:48:52.129Z,99628.66
2022-10-18T20:51:20.548Z,99618.69
2022-10-18T20:53:49.112Z,99627.81
2022-10-18T20:56:17.874Z,99625.41
2022-10-18T20:58:47.026Z,99629.16
2022-10-18T21:01:18.158Z,99631.28
2022-10-18T21:03:47.512Z,99623.94
2022-10-18T21:06:16.774Z,99623.78
2022-10-18T21:08:45.341Z,99629.16
2022-10-18T21:11:13.912Z,99626.94
2022-10-18T21:13:41.905Z,99624.66
2022-10-18T21:16:10.119Z,99640.19
2022-10-18T21:18:40.486Z,99634.13
2022-10-18T21:21:09.683Z,99628.75
2022-10-18T21:23:37.863Z,99630.22
2022-10-18T21:26:06.457Z,99624.63
2022-10-18T21:28:34.868Z,99618.81
2022-10-18T21:31:09.934Z,99616.00
2022-10-18T21:33:39.649Z,99623.78
2022-10-18T21:36:08.201Z,99608.91
2022-10-18T21:38:36.337Z,99606.75
2022-10-18T21:41:08.401Z,99612.22
2022-10-18T21:43:36.466Z,99612.97
2022-10-18T21:46:04.460Z,99617.38
2022-10-18T21:48:34.755Z,99617.97
2022-10-18T21:51:04.936Z,99615.31
2022-10-18T21:53:35.595Z,99621.16
2022-10-18T21:56:07.449Z,99613.03
2022-10-18T21:58:35.969Z,99616.13
2022-10-18T22:02:37.715Z,99592.88
2022-10-18T22:05:08.432Z,99589.31
2022-10-18T22:07:39.361Z,99589.91
2022-10-18T22:10:07.858Z,99600.59
2022-10-18T22:12:35.862Z,99596.88
2022-10-18T22:15:03.900Z,99593.31
2022-10-18T22:17:34.401Z,99597.06
2022-10-18T22:20:07.310Z,99599.88
2022-10-18T22:22:35.334Z,99600.94
2022-10-18T22:25:03.327Z,99597.56
2022-10-18T22:27:32.111Z,99590.69
2022-10-18T22:30:00.274Z,99589.44
2022-10-18T22:32:28.230Z,99593.84
2022-10-18T22:34:56.250Z,99582.56
2022-10-18T22:37:25.540Z,99585.47
2022-10-18T22:39:55.992Z,99586.53
2022-10-18T22:42:24.037Z,99580.66
2022-10-18T22:44:52.061Z,99587.59
2022-10-18T22:47:20.014Z,99588.66
2022-10-18T22:49:47.985Z,99592.66
2022-10-18T22:52:15.943Z,99582.28
2022-10-18T22:54:45.230Z,99587.09
2022-10-18T22:57:13.192Z,99591.47
2022-10-18T22:59:41.152Z,99581.47
2022-10-18T23:02:09.610Z,99583.97
2022-10-18T23:04:37.584Z,99580.97
2022-10-18T23:07:07.873Z,99584.50
2022-10-18T23:09:36.000Z,99580.97
2022-10-18T23:12:07.385Z,99576.75
2022-10-18T23:14:35.348Z,99574.50
2022-10-18T23:17:03.306Z,99569.81
2022-10-18T23:19:31.304Z,99562.50
2022-10-18T23:21:59.244Z,99558.81
2022-10-18T23:24:27.216Z,99558.66
2022-10-18T23:26:55.183Z,99553.00
2022-10-18T23:29:24.490Z,99558.56
2022-10-18T23:31:54.798Z,99557.78
2022-10-18T23:34:22.757Z,99554.75
2022-10-18T23:36:50.699Z,99551.66
2022-10-18T23:39:18.658Z,99549.13
2022-10-18T23:41:46.619Z,99558.09
2022-10-18T23:44:14.655Z,99557.44
2022-10-18T23:46:43.947Z,99558.72
2022-10-18T23:49:14.156Z,99559.81
2022-10-18T23:51:42.169Z,99563.66
2022-10-18T23:54:10.164Z,99570.13
2022-10-18T23:56:40.441Z,99564.53
2022-10-18T23:59:08.400Z,99578.50
